createdAt,value
2023-03-17T04:58:02.619Z,64.84
2023-03-17T05:01:05.693Z,65.78
2023-03-17T05:04:08.040Z,65.95
2023-03-17T05:07:11.011Z,65.71
2023-03-17T05:10:13.763Z,66.20
2023-03-17T05:13:16.538Z,66.58
2023-03-17T05:16:18.808Z,66.49
2023-03-17T05:19:21.345Z,66.77
2023-03-17T05:22:23.435Z,65.83
2023-03-17T05:25:25.903Z,66.23
2023-03-17T05:28:28.544Z,66.43
2023-03-17T05:31:31.721Z,65.57
2023-03-17T05:34:33.826Z,64.39
2023-03-17T05:37:36.180Z,64.61
2023-03-17T05:40:38.551Z,65.30
2023-03-17T05:43:41.349Z,64.50
2023-03-17T05:46:43.483Z,62.78
2023-03-17T05:49:45.997Z,63.45
2023-03-17T05:52:48.640Z,64.06
2023-03-17T05:55:52.282Z,64.05
2023-03-17T05:58:54.437Z,62.20
2023-03-17T06:01:57.170Z,62.36
2023-03-17T06:04:59.688Z,62.53
2023-03-17T06:08:02.114Z,61.82
2023-03-17T06:11:04.652Z,61.95
2023-03-17T06:14:07.277Z,62.19
2023-03-17T06:17:09.778Z,62.80
2023-03-17T06:20:13.086Z,62.97
2023-03-17T06:23:16.028Z,61.50
2023-03-17T06:26:18.116Z,60.37
2023-03-17T06:29:20.506Z,59.96
2023-03-17T06:32:22.657Z,59.72
2023-03-17T06:35:25.377Z,59.68
2023-03-17T06:38:28.116Z,59.41
2023-03-17T06:41:30.559Z,58.46
2023-03-17T06:44:32.708Z,57.73
2023-03-17T06:47:37.178Z,57.80
2023-03-17T06:50:39.334Z,58.20
2023-03-17T06:53:42.123Z,59.02
2023-03-17T06:56:45.035Z,59.44
2023-03-17T06:59:47.498Z,57.19
2023-03-17T07:02:49.675Z,56.30
2023-03-17T07:05:53.260Z,56.30
2023-03-17T07:08:55.420Z,52.72
2023-03-17T07:11:58.229Z,52.24
2023-03-17T07:15:01.297Z,51.57
2023-03-17T07:18:06.438Z,51.06
2023-03-17T07:21:09.362Z,49.38
2023-03-17T07:24:12.478Z,48.75
2023-03-17T07:27:16.139Z,47.67
2023-03-17T07:30:19.716Z,48.18
2023-03-17T07:33:21.914Z,48.52
2023-03-17T07:36:25.021Z,46.64
2023-03-17T07:39:27.666Z,47.35
2023-03-17T07:42:30.370Z,47.89
2023-03-17T07:45:33.441Z,47.83
2023-03-17T07:48:40.621Z,47.44
2023-03-17T07:51:43.298Z,47.57
2023-03-17T07:54:45.722Z,47.54
2023-03-17T07:57:47.940Z,47.62
2023-03-17T08:00:51.763Z,47.76
2023-03-17T08:03:55.590Z,47.87
2023-03-17T08:06:57.923Z,46.20
2023-03-17T08:10:00.410Z,44.58
2023-03-17T08:13:02.571Z,45.30
2023-03-17T08:16:05.618Z,44.33
2023-03-17T08:19:07.734Z,44.04
2023-03-17T08:22:10.951Z,44.37
2023-03-17T08:25:13.117Z,43.17
2023-03-17T08:28:15.524Z,45.00
2023-03-17T08:31:20.832Z,42.14
2023-03-17T08:34:24.278Z,43.79
2023-03-17T08:37:26.714Z,40.42
2023-03-17T08:40:30.211Z,39.59
2023-03-17T08:43:33.799Z,40.01
2023-03-17T08:46:36.871Z,38.84
2023-03-17T08:49:44.769Z,39.21
2023-03-17T08:52:48.971Z,37.88
2023-03-17T08:55:58.895Z,37.41
2023-03-17T08:59:01.937Z,36.57
2023-03-17T09:02:04.239Z,37.49
2023-03-17T09:05:07.915Z,35.95
2023-03-17T09:08:11.985Z,37.79
2023-03-17T09:11:17.155Z,36.00
2023-03-17T09:14:19.622Z,36.56
2023-03-17T09:17:23.300Z,38.29
2023-03-17T09:20:25.807Z,35.80
2023-03-17T09:23:28.479Z,36.53
2023-03-17T09:26:30.721Z,35.01
2023-03-17T09:29:36.628Z,35.58
2023-03-17T09:32:39.621Z,35.22
2023-03-17T09:35:43.576Z,35.31
2023-03-17T09:38:46.276Z,34.97
2023-03-17T09:42:00.576Z,35.46
2023-03-17T09:45:33.466Z,34.43
2023-03-17T09:48:59.186Z,33.20
2023-03-17T09:52:01.452Z,33.42
2023-03-17T09:55:08.516Z,33.95
2023-03-17T09:58:11.891Z,34.49
2023-03-17T10:01:14.287Z,32.90
2023-03-17T10:04:18.863Z,32.99
2023-03-17T10:07:28.486Z,34.31
2023-03-17T10:10:46.412Z,33.20
2023-03-17T10:14:12.744Z,32.53
2023-03-17T10:17:47.762Z,34.75
2023-03-17T10:20:56.842Z,33.29
2023-03-17T10:24:01.964Z,32.64
2023-03-17T10:27:07.553Z,31.75
2023-03-17T10:30:31.150Z,31.35
2023-03-17T10:33:33.548Z,32.89
2023-03-17T10:36:40.025Z,32.85
2023-03-17T10:39:56.128Z,33.30
2023-03-17T10:43:07.815Z,32.04
2023-03-17T10:46:21.536Z,31.42
2023-03-17T10:49:25.239Z,31.48
2023-03-17T10:52:31.103Z,32.37
2023-03-17T10:55:39.098Z,31.95
2023-03-17T10:58:46.981Z,31.65
2023-03-17T11:01:57.103Z,31.77
2023-03-17T11:05:17.615Z,31.08
2023-03-17T11:08:21.012Z,31.82
2023-03-17T11:11:30.286Z,31.05
2023-03-17T11:14:33.335Z,31.54
2023-03-17T11:18:01.170Z,30.80
2023-03-17T11:21:17.489Z,31.68
2023-03-17T11:24:33.560Z,31.31
2023-03-17T11:27:46.969Z,31.93
2023-03-17T11:31:37.810Z,32.24
2023-03-17T11:34:59.433Z,30.39
2023-03-17T11:38:36.171Z,31.31
2023-03-17T11:42:06.839Z,30.80
2023-03-17T11:45:19.761Z,31.53
2023-03-17T11:48:41.582Z,32.05
2023-03-17T11:52:17.405Z,30.81
2023-03-17T11:55:45.359Z,30.51
2023-03-17T11:58:56.394Z,31.30
2023-03-17T12:02:25.216Z,31.97
2023-03-17T12:05:30.039Z,30.31
2023-03-17T12:08:42.413Z,29.86
2023-03-17T12:11:46.544Z,30.58
2023-03-17T12:14:53.308Z,30.24
2023-03-17T12:18:20.611Z,29.67
2023-03-17T12:21:32.853Z,29.99
2023-03-17T12:24:41.952Z,30.06
2023-03-17T12:28:00.183Z,30.00
2023-03-17T12:31:07.323Z,30.20
2023-03-17T12:34:09.423Z,29.89
2023-03-17T12:37:12.182Z,29.67
2023-03-17T12:40:20.552Z,29.94
2023-03-17T12:43:26.125Z,29.87
2023-03-17T12:46:51.198Z,29.48
2023-03-17T12:50:06.828Z,31.19
2023-03-17T12:53:21.433Z,29.70
2023-03-17T12:56:31.672Z,29.78
2023-03-17T12:59:36.362Z,28.52
2023-03-17T13:02:39.754Z,29.26
2023-03-17T13:05:47.267Z,29.15
2023-03-17T13:08:50.343Z,30.19
2023-03-17T13:11:52.665Z,28.61
2023-03-17T13:15:01.787Z,29.10
2023-03-17T13:18:23.968Z,29.06
2023-03-17T13:21:27.137Z,29.80
2023-03-17T13:25:12.584Z,29.88
2023-03-17T13:28:15.443Z,28.88
2023-03-17T13:31:36.608Z,28.30
2023-03-17T13:34:47.699Z,28.79
2023-03-17T13:38:24.495Z,29.53
2023-03-17T13:41:26.875Z,28.40
2023-03-17T13:45:11.767Z,28.20
2023-03-17T13:48:38.723Z,28.48
2023-03-17T13:51:49.490Z,27.85
2023-03-17T13:55:18.314Z,29.02
2023-03-17T13:58:25.069Z,29.18
2023-03-17T14:01:29.909Z,28.41
2023-03-17T14:04:45.302Z,28.46
2023-03-17T14:07:54.995Z,28.69
2023-03-17T14:11:00.696Z,29.34
2023-03-17T14:14:36.462Z,28.77
2023-03-17T14:17:47.234Z,29.10
2023-03-17T14:20:58.287Z,28.61
2023-03-17T14:24:04.310Z,28.59
2023-03-17T14:27:10.611Z,30.61
2023-03-17T14:30:35.005Z,28.19
2023-03-17T14:33:39.640Z,29.96
2023-03-17T14:36:42.516Z,30.11
2023-03-17T14:39:48.404Z,29.25
2023-03-17T14:42:50.922Z,29.69
2023-03-17T14:45:59.957Z,28.89
2023-03-17T14:49:16.453Z,29.00
2023-03-17T14:52:21.518Z,29.18
2023-03-17T14:55:34.496Z,30.58
2023-03-17T14:58:43.650Z,31.12
2023-03-17T15:01:48.432Z,30.02
2023-03-17T15:05:17.612Z,30.54
2023-03-17T15:08:36.328Z,29.90
2023-03-17T15:11:42.904Z,30.23
2023-03-17T15:14:46.452Z,30.17
2023-03-17T15:17:54.123Z,30.83
2023-03-17T15:20:56.608Z,29.50
2023-03-17T15:24:04.353Z,29.37
2023-03-17T15:27:18.332Z,29.82
2023-03-17T15:30:21.010Z,29.87
2023-03-17T15:33:29.568Z,30.78
2023-03-17T15:36:33.252Z,30.52
2023-03-17T15:39:35.832Z,29.81
2023-03-17T15:42:39.501Z,31.87
2023-03-17T15:45:43.842Z,31.14
2023-03-17T15:48:46.640Z,30.71
